createdAt,value
2022-11-05T07:33:43.959Z,69.50
2022-11-05T07:36:36.733Z,64.41
2022-11-05T07:58:57.208Z,57.19
2022-11-05T08:01:31.033Z,58.91
2022-11-05T08:04:23.758Z,61.48
2022-11-05T08:13:06.622Z,68.38
2022-11-05T08:15:33.012Z,64.14
2022-11-05T08:17:59.419Z,61.11
2022-11-05T08:20:25.872Z,58.37
2022-11-05T08:22:52.279Z,55.81
2022-11-05T08:25:18.666Z,54.19
2022-11-05T08:27:45.053Z,53.05
2022-11-05T08:30:11.419Z,51.99
2022-11-05T08:32:37.809Z,51.34
2022-11-05T08:35:04.298Z,50.67
2022-11-05T08:37:30.715Z,50.00
2022-11-05T08:39:57.103Z,49.59
2022-11-05T08:42:23.465Z,49.37
2022-11-05T08:44:49.833Z,49.17
2022-11-05T08:47:16.219Z,49.00
2022-11-05T08:49:42.648Z,48.70
2022-11-05T08:52:09.024Z,48.37
2022-11-05T08:54:35.399Z,48.52
2022-11-05T08:57:01.788Z,48.28
2022-11-05T08:59:28.161Z,48.23
2022-11-05T09:01:54.761Z,48.21
2022-11-05T09:04:21.186Z,47.93
2022-11-05T09:06:47.549Z,47.88
2022-11-05T09:09:13.929Z,47.82
2022-11-05T09:12:10.002Z,47.93
2022-11-05T09:14:26.745Z,47.91
2022-11-05T09:16:53.117Z,47.72
2022-11-05T09:19:19.481Z,47.84
2022-11-05T09:21:45.870Z,47.79
2022-11-05T09:24:12.230Z,47.68
2022-11-05T09:26:38.608Z,47.64
2022-11-05T09:29:05.001Z,47.66
2022-11-05T09:31:31.378Z,47.66
2022-11-05T09:33:57.747Z,47.57
2022-11-05T09:36:24.158Z,47.59
2022-11-05T09:38:50.562Z,47.53
2022-11-05T09:41:16.940Z,47.29
2022-11-05T09:43:43.307Z,47.32
2022-11-05T09:46:09.668Z,47.21
2022-11-05T09:48:36.036Z,47.33
2022-11-05T09:51:02.420Z,47.33
2022-11-05T09:53:28.793Z,47.24
2022-11-05T09:55:55.158Z,47.28
2022-11-05T09:58:27.476Z,47.11
2022-11-05T10:00:55.154Z,47.11
2022-11-05T10:03:21.610Z,47.15
2022-11-05T10:05:48.022Z,47.09
2022-11-05T10:08:14.508Z,47.04
2022-11-05T10:10:41.497Z,46.79
2022-11-05T10:13:07.928Z,47.01
2022-11-05T10:15:34.317Z,46.87
2022-11-05T10:18:00.687Z,46.67
2022-11-05T10:20:27.271Z,46.98
2022-11-05T10:22:53.655Z,47.12
2022-11-05T10:25:20.014Z,46.81
2022-11-05T10:27:46.395Z,47.59
2022-11-05T10:30:12.797Z,48.15
2022-11-05T10:32:39.162Z,48.73
2022-11-05T10:35:05.557Z,49.18
2022-11-05T10:37:31.981Z,48.76
2022-11-05T10:39:58.554Z,48.03
2022-11-05T10:42:24.952Z,48.09
2022-11-05T10:44:51.426Z,47.89
2022-11-05T10:47:17.828Z,47.91
2022-11-05T10:49:44.286Z,47.78
2022-11-05T10:52:10.660Z,47.74
2022-11-05T10:54:37.039Z,47.37
2022-11-05T10:57:03.420Z,47.37
2022-11-05T10:59:29.797Z,47.02
2022-11-05T11:01:56.541Z,47.30
2022-11-05T11:04:36.646Z,47.68
2022-11-05T11:23:59.575Z,52.13
2022-11-05T11:26:25.938Z,50.39
2022-11-05T11:28:52.320Z,49.81
2022-11-05T11:31:18.712Z,49.33
2022-11-05T11:33:45.098Z,49.11
2022-11-05T11:36:11.479Z,49.13
2022-11-05T11:38:37.856Z,48.56
2022-11-05T11:41:04.209Z,48.49
2022-11-05T11:43:30.586Z,48.40
2022-11-05T11:46:02.155Z,48.29
2022-11-05T11:48:31.421Z,48.20
2022-11-05T11:50:57.802Z,48.04
2022-11-05T11:53:24.176Z,47.75
2022-11-05T11:55:50.563Z,47.94
2022-11-05T11:58:16.948Z,47.96
2022-11-05T12:00:43.328Z,47.67
2022-11-05T12:03:09.785Z,47.46
2022-11-05T12:05:36.315Z,47.73
2022-11-05T12:08:02.731Z,47.67
2022-11-05T12:10:29.140Z,47.41
2022-11-05T12:12:55.531Z,47.48
2022-11-05T12:15:21.926Z,47.27
2022-11-05T12:17:48.323Z,47.39
2022-11-05T12:20:14.792Z,47.44
2022-11-05T12:22:41.271Z,47.46
2022-11-05T12:25:07.644Z,47.46
2022-11-05T12:27:34.029Z,47.39
2022-11-05T12:30:00.413Z,47.00
2022-11-05T12:32:26.800Z,47.14
2022-11-05T12:34:53.263Z,47.09
2022-11-05T12:37:19.634Z,47.28
2022-11-05T12:39:46.042Z,47.31
2022-11-05T12:42:12.417Z,47.24
2022-11-05T12:44:38.818Z,47.13
2022-11-05T12:47:05.218Z,47.03
2022-11-05T12:49:31.596Z,47.33
2022-11-05T12:51:57.990Z,46.99
2022-11-05T12:54:24.364Z,47.24
2022-11-05T12:56:50.727Z,47.00
2022-11-05T12:59:17.154Z,47.22
2022-11-05T13:01:43.623Z,47.17
2022-11-05T13:04:10.069Z,47.21
2022-11-05T13:06:36.438Z,47.07
2022-11-05T13:09:02.828Z,47.16
2022-11-05T13:11:29.201Z,46.89
2022-11-05T13:13:55.557Z,46.74
2022-11-05T13:16:22.046Z,46.86
2022-11-05T13:18:48.450Z,46.91
2022-11-05T13:21:14.834Z,46.59
2022-11-05T13:23:41.201Z,46.75
2022-11-05T13:26:07.579Z,46.94
2022-11-05T13:28:33.966Z,46.72
2022-11-05T13:31:00.459Z,46.58
2022-11-05T13:33:26.874Z,46.69
2022-11-05T13:35:53.277Z,46.75
2022-11-05T13:38:19.680Z,46.41
2022-11-05T13:40:46.052Z,46.54
2022-11-05T13:43:12.748Z,46.59
2022-11-05T13:45:39.378Z,46.64
2022-11-05T18:37:43.508Z,54.89
2022-11-05T18:48:21.274Z,51.51
2022-11-05T18:51:09.408Z,50.78
2022-11-05T18:56:23.700Z,49.90
2022-11-05T19:01:40.525Z,49.67
2022-11-05T19:12:32.900Z,49.01
2022-11-05T19:15:02.384Z,48.96
